Time;durP1;ratioP1;P1;durP2;ratioP2;P2;SDS_P1;SDS_P2;PMS_P1;PMS_P2;Temp;Humidity;BMP_temperature;BMP_pressure;BME280_temperature;BME280_humidity;BME280_pressure;Samples;Min_cycle;Max_cycle;Signal;HPM_P1;HPM_P2
2022/01/11 00:01:26;;;;;;;119.93;68.57;;;-1.20;99.90;;;-1.42;76.58;102752.88;4963152;29;20176;-71
2022/01/11 00:03:56;;;;;;;138.52;77.18;;;-1.20;99.90;;;-1.46;76.79;102746.03;4962916;28;20263;-69
2022/01/11 00:06:34;;;;;;;123.47;72.70;;;-1.20;99.90;;;-1.40;76.83;102749.19;4959196;28;20184;-71
2022/01/11 00:09:18;;;;;;;101.97;62.60;;;-1.20;99.90;;;-1.45;76.56;102753.03;4958540;29;20180;-70
2022/01/11 00:11:47;;;;;;;106.78;70.82;;;-1.30;99.90;;;-1.54;77.01;102751.72;4957767;29;20172;-72
2022/01/11 00:14:16;;;;;;;115.63;71.43;;;-1.40;99.90;;;-1.61;76.83;102752.13;4956296;29;20299;-68
2022/01/11 00:16:45;;;;;;;124.85;71.82;;;-1.40;99.90;;;-1.60;76.85;102752.03;4940578;29;20211;-69
2022/01/11 00:19:14;;;;;;;123.50;72.80;;;-1.40;99.90;;;-1.63;76.93;102752.19;4957861;29;20183;-70
2022/01/11 00:21:48;;;;;;;135.80;78.75;;;-1.50;99.90;;;-1.62;76.78;102747.75;4958094;29;20676;-70
2022/01/11 00:24:30;;;;;;;131.82;72.88;;;-1.40;99.90;;;-1.71;77.23;102749.06;4957831;28;20215;-69
2022/01/11 00:27:01;;;;;;;122.07;69.97;;;-1.50;99.90;;;-1.72;77.54;102747.34;4957777;28;20263;-69
2022/01/11 00:29:32;;;;;;;121.43;70.75;;;-1.50;1.00;;;-1.76;77.75;102743.13;4957841;28;20267;-70
2022/01/11 00:32:10;;;;;;;123.07;66.97;;;-1.60;1.00;;;-1.74;77.65;102741.25;4956135;29;20216;-69
2022/01/11 00:34:47;;;;;;;131.48;69.85;;;-1.60;1.00;;;-1.73;77.73;102750.94;4957469;29;20726;-70
2022/01/11 00:37:18;;;;;;;120.45;73.75;;;-1.60;1.00;;;-1.77;78.75;102739.63;4956321;29;20283;-71
2022/01/11 00:39:49;;;;;;;127.18;71.53;;;-1.60;1.00;;;-1.79;77.95;102740.63;4957240;28;20184;-69
2022/01/11 00:42:19;;;;;;;143.18;72.32;;;-1.60;1.00;;;-1.71;77.99;102743.75;4957532;28;20204;-68
2022/01/11 00:44:49;;;;;;;121.82;69.80;;;-1.60;1.00;;;-1.68;77.38;102754.22;4956045;29;20191;-70
2022/01/11 00:47:17;;;;;;;129.38;74.75;;;-1.60;1.00;;;-1.63;77.71;102757.50;4956467;29;20587;-71
2022/01/11 00:49:46;;;;;;;137.23;80.00;;;-1.50;1.00;;;-1.46;77.31;102753.97;4940063;29;20274;-70
2022/01/11 00:52:14;;;;;;;149.38;75.75;;;-1.50;1.00;;;-1.54;77.16;102764.13;4957308;29;20204;-70
2022/01/11 00:54:44;;;;;;;139.32;75.13;;;-1.40;1.00;;;-1.55;77.02;102773.06;4957497;28;20192;-69
2022/01/11 00:57:13;;;;;;;132.98;77.75;;;-1.50;1.00;;;-1.76;77.37;102783.81;4956396;29;20651;-70
2022/01/11 00:59:41;;;;;;;129.27;74.82;;;-1.60;1.00;;;-1.70;77.92;102793.28;4957790;29;20180;-71
2022/01/11 01:02:11;;;;;;;136.55;76.28;;;-1.60;1.00;;;-1.44;77.54;102790.13;4956174;29;20708;-70
2022/01/11 01:04:39;;;;;;;122.07;76.97;;;-1.50;1.00;;;-1.44;77.78;102795.44;4957644;29;20230;-69
2022/01/11 01:07:08;;;;;;;138.38;77.13;;;-1.40;1.00;;;-1.57;76.88;102798.81;4956098;29;20298;-70
2022/01/11 01:09:45;;;;;;;140.15;80.82;;;-1.50;1.00;;;-1.59;77.61;102796.22;4957018;29;20544;-70
2022/01/11 01:12:15;;;;;;;134.10;75.68;;;-1.50;1.00;;;-1.73;77.36;102797.84;4957380;29;20220;-71
2022/01/11 01:14:44;;;;;;;135.77;79.70;;;-1.60;1.00;;;-1.68;77.52;102801.13;4955648;28;20634;-70
2022/01/11 01:17:13;;;;;;;144.95;80.68;;;-1.60;1.00;;;-1.63;77.80;102805.28;4956760;28;20192;-70
2022/01/11 01:19:41;;;;;;;127.10;67.90;;;-1.60;1.00;;;-1.75;77.99;102808.56;4939668;29;20573;-70
2022/01/11 01:22:09;;;;;;;135.82;77.65;;;-1.70;1.00;;;-1.69;77.95;102821.50;4956973;29;20243;-70
2022/01/11 01:24:38;;;;;;;132.85;71.68;;;-1.60;1.00;;;-1.73;77.61;102819.94;4956169;29;20242;-71
2022/01/11 01:27:07;;;;;;;138.38;74.28;;;-1.60;1.00;;;-1.86;77.81;102819.72;4957002;28;20184;-70
2022/01/11 01:29:38;;;;;;;116.03;66.57;;;-1.70;1.00;;;-1.71;77.33;102817.22;4956903;29;20576;-70
2022/01/11 01:32:08;;;;;;;131.43;77.75;;;-1.70;1.00;;;-1.81;78.40;102816.81;4956907;29;20270;-69
2022/01/11 01:34:37;;;;;;;140.38;73.57;;;-1.70;1.00;;;-1.66;77.56;102821.38;4956896;29;20621;-69
2022/01/11 01:37:07;;;;;;;152.70;76.10;;;-1.70;1.00;;;-1.68;78.32;102823.22;4940202;29;20196;-70
2022/01/11 01:39:36;;;;;;;139.10;72.97;;;-1.60;1.00;;;-1.91;77.93;102826.16;4974384;29;20200;-70
2022/01/11 01:42:08;;;;;;;143.82;74.07;;;-1.80;1.00;;;-1.86;78.20;102824.16;4973682;28;20208;-68
2022/01/11 01:44:37;;;;;;;134.02;73.18;;;-1.70;1.00;;;-1.84;77.74;102831.09;5212514;23;20251;-67
2022/01/11 01:47:07;;;;;;;137.40;72.40;;;-1.80;1.00;;;-1.83;78.65;102830.16;4971719;28;20191;-68
2022/01/11 01:49:39;;;;;;;148.15;71.07;;;-1.80;1.00;;;-1.88;78.02;102834.84;4995372;28;20651;-68
2022/01/11 01:52:08;;;;;;;125.57;71.38;;;-1.80;1.00;;;-1.93;78.16;102833.34;4977307;28;20190;-68
2022/01/11 01:54:37;;;;;;;119.78;68.13;;;-1.80;1.00;;;-1.91;78.09;102844.75;4977534;28;20211;-67
2022/01/11 01:57:06;;;;;;;125.28;69.90;;;-1.80;1.00;;;-2.07;77.90;102836.66;4975136;28;20238;-67
2022/01/11 01:59:36;;;;;;;136.77;73.32;;;-1.90;1.00;;;-2.02;78.59;102844.41;4974601;28;20182;-67
2022/01/11 02:02:07;;;;;;;151.10;77.47;;;-1.90;1.00;;;-2.03;78.92;102842.69;4957296;28;20195;-67
2022/01/11 02:04:36;;;;;;;137.93;68.07;;;-1.90;1.00;;;-2.11;78.61;102843.06;4957484;28;20215;-67
2022/01/11 02:07:05;;;;;;;138.70;70.75;;;-1.90;1.00;;;-2.21;79.26;102842.63;4975535;28;20187;-68
2022/01/11 02:09:33;;;;;;;136.70;74.03;;;-2.00;1.00;;;-1.90;78.79;102849.13;4957316;28;20219;-68
2022/01/11 02:12:02;;;;;;;151.90;69.78;;;-1.90;99.90;;;-1.91;78.52;102842.09;4974814;28;20194;-68
2022/01/11 02:14:31;;;;;;;134.07;64.72;;;-1.90;99.90;;;-1.85;78.14;102849.75;4957342;28;20215;-67
2022/01/11 02:17:01;;;;;;;133.20;66.78;;;-1.80;41.00;;;-1.87;77.96;102848.97;4975154;28;20198;-67
2022/01/11 02:19:30;;;;;;;130.90;67.40;;;-1.80;1.00;;;-1.77;79.03;102850.25;4957455;28;20274;-67
2022/01/11 02:22:00;;;;;;;119.47;63.00;;;-1.80;1.00;;;-1.94;78.13;102847.56;4956712;28;20196;-67
2022/01/11 02:24:32;;;;;;;140.05;66.80;;;-1.80;1.00;;;-2.00;78.03;102848.72;4957233;28;20211;-66
2022/01/11 02:27:04;;;;;;;137.63;63.78;;;-1.90;1.00;;;-2.01;78.51;102852.28;4956833;28;20195;-67
2022/01/11 02:29:34;;;;;;;123.13;64.60;;;-1.90;1.00;;;-2.03;78.12;102856.81;4957281;28;20291;-67
2022/01/11 02:32:02;;;;;;;133.43;68.13;;;-1.90;1.00;;;-1.95;79.12;102856.44;4956959;28;20554;-67
2022/01/11 02:34:31;;;;;;;137.00;63.47;;;-1.90;1.00;;;-1.97;78.24;102858.31;4956800;28;20215;-66
2022/01/11 02:37:09;;;;;;;124.55;65.25;;;-1.90;1.00;;;-1.92;78.58;102864.25;4956894;28;20206;-67
2022/01/11 02:40:01;;;;;;;137.05;66.75;;;-1.80;1.00;;;-1.85;78.38;102873.66;4966207;28;20684;-67
2022/01/11 02:42:33;;;;;;;138.95;64.82;;;-1.80;1.00;;;-1.86;78.71;102867.47;4974985;28;20215;-67
2022/01/11 02:45:02;;;;;;;131.80;62.92;;;-1.80;1.00;;;-1.89;78.48;102880.88;4956758;28;20301;-68
2022/01/11 02:47:35;;;;;;;124.95;61.88;;;-1.80;1.00;;;-1.82;78.27;102881.44;4956911;28;20267;-67
2022/01/11 02:50:05;;;;;;;123.13;60.40;;;-1.80;1.00;;;-1.91;78.58;102884.56;4956836;28;20664;-67
2022/01/11 02:52:41;;;;;;;136.95;58.08;;;-1.90;1.00;;;-2.10;78.61;102889.88;4956786;28;20187;-66
2022/01/11 02:55:13;;;;;;;134.57;61.72;;;-1.90;1.00;;;-2.25;79.15;102880.84;4956619;28;20218;-67
2022/01/11 02:57:44;;;;;;;122.82;59.90;;;-2.00;1.00;;;-2.41;79.26;102885.13;4956729;28;20222;-67
2022/01/11 03:00:24;;;;;;;136.55;60.35;;;-2.10;1.00;;;-2.24;79.26;102887.88;4956781;28;20187;-67
2022/01/11 03:02:53;;;;;;;122.25;60.95;;;-2.20;99.90;;;-2.29;79.43;102879.28;4973979;28;20261;-66
2022/01/11 03:05:25;;;;;;;142.95;61.90;;;-2.10;99.90;;;-2.25;79.76;102878.19;4957563;28;20291;-68
2022/01/11 03:07:58;;;;;;;112.97;55.55;;;-2.20;99.90;;;-2.27;79.45;102887.13;4958453;28;20194;-66
2022/01/11 03:10:32;;;;;;;117.32;58.00;;;-2.20;99.90;;;-2.27;80.20;102888.00;4958495;28;20216;-67
2022/01/11 03:13:05;;;;;;;133.68;57.58;;;-2.10;1.00;;;-2.20;79.33;102889.44;4957540;28;20301;-67
2022/01/11 03:15:35;;;;;;;130.75;62.25;;;-2.10;1.00;;;-2.10;79.42;102894.31;4974974;28;20207;-68
2022/01/11 03:18:08;;;;;;;144.68;57.58;;;-2.10;1.00;;;-2.11;79.24;102898.75;4956513;28;20192;-66
2022/01/11 03:20:46;;;;;;;138.27;59.28;;;-2.10;1.00;;;-1.92;79.49;102896.09;4956466;28;20198;-67
2022/01/11 03:23:16;;;;;;;119.00;55.10;;;-1.90;1.00;;;-1.90;79.37;102902.22;4956516;28;20223;-67
2022/01/11 03:25:47;;;;;;;122.50;56.63;;;-1.90;1.00;;;-1.87;79.62;102902.03;4956608;28;20282;-67
2022/01/11 03:28:16;;;;;;;122.95;54.47;;;-1.80;1.00;;;-1.54;78.65;102904.84;4956526;28;20282;-68
2022/01/11 03:30:45;;;;;;;125.80;54.58;;;-1.60;1.00;;;-1.76;78.28;102910.34;4956543;28;20270;-68
2022/01/11 03:33:13;;;;;;;127.55;54.40;;;-1.70;99.90;;;-1.72;78.91;102914.59;4956375;28;20274;-66
2022/01/11 03:35:45;;;;;;;117.90;50.63;;;-1.70;99.90;;;-1.84;78.23;102907.22;4959418;28;20215;-67
2022/01/11 03:38:18;;;;;;;117.53;50.85;;;-1.80;6.40;;;-2.01;78.79;102907.16;4960070;28;20190;-67
2022/01/11 03:40:52;;;;;;;108.15;49.47;;;-1.80;1.00;;;-1.90;78.63;102918.13;4959883;28;20195;-68
2022/01/11 03:43:22;;;;;;;114.45;50.97;;;-1.80;1.00;;;-1.96;78.72;102913.09;4977137;28;20302;-66
2022/01/11 03:45:51;;;;;;;110.85;49.00;;;-1.80;1.00;;;-2.20;79.59;102910.66;4959834;28;20567;-66
2022/01/11 03:48:22;;;;;;;108.97;49.83;;;-1.90;1.00;;;-2.02;78.86;102908.94;4959907;28;20180;-66
2022/01/11 03:50:54;;;;;;;117.13;50.08;;;-1.90;1.00;;;-2.02;79.59;102930.16;4959707;28;20191;-67
2022/01/11 03:53:54;;;;;;;104.40;51.97;;;-1.90;1.00;;;-1.65;79.19;102929.28;4959645;28;20233;-67
2022/01/11 03:56:26;;;;;;;113.60;50.55;;;-1.80;99.90;;;-1.71;78.21;102940.19;4959506;28;20203;-67
2022/01/11 03:59:06;;;;;;;108.15;54.72;;;-1.80;16.70;;;-1.80;78.83;102930.03;4959481;28;20194;-68
2022/01/11 04:01:35;;;;;;;120.55;54.25;;;-1.70;1.00;;;-1.58;79.13;102935.16;4959937;28;20187;-66
2022/01/11 04:04:05;;;;;;;121.30;52.95;;;-1.60;27.30;;;-1.41;78.20;102930.75;4959764;28;20230;-66
2022/01/11 04:06:34;;;;;;;115.75;50.88;;;-1.50;73.90;;;-1.32;78.13;102927.66;4959515;28;20222;-66
2022/01/11 04:09:06;;;;;;;105.50;47.05;;;-1.40;1.00;;;-1.59;77.45;102936.94;4959598;28;20668;-66
2022/01/11 04:11:36;;;;;;;100.43;51.03;;;-1.40;1.00;;;-1.35;78.03;102942.84;4959813;28;20210;-67
2022/01/11 04:14:05;;;;;;;102.53;48.50;;;-1.40;1.00;;;-1.42;77.79;102947.63;4959537;28;20219;-67
2022/01/11 04:16:33;;;;;;;105.05;45.65;;;-1.40;1.00;;;-1.30;76.79;102946.13;4976914;28;20215;-67
2022/01/11 04:19:03;;;;;;;101.35;50.17;;;-1.40;1.00;;;-1.43;77.84;102945.03;4959462;28;20187;-68
2022/01/11 04:21:32;;;;;;;102.32;49.53;;;-1.40;1.00;;;-1.29;76.53;102945.22;4959292;28;20226;-66
2022/01/11 04:24:02;;;;;;;100.00;46.72;;;-1.30;1.00;;;-1.17;76.92;102935.78;4959220;28;20723;-67
2022/01/11 04:26:32;;;;;;;93.13;45.58;;;-1.20;1.00;;;-1.45;77.21;102942.44;4959475;28;20183;-67
2022/01/11 04:29:06;;;;;;;100.32;47.60;;;-1.30;1.00;;;-1.49;77.09;102940.88;4958999;28;20206;-67
2022/01/11 04:31:34;;;;;;;88.63;43.88;;;-1.40;1.00;;;-1.60;77.62;102947.66;4959113;28;20202;-67
2022/01/11 04:34:07;;;;;;;94.32;44.67;;;-1.40;1.00;;;-1.68;77.93;102940.03;4959178;28;20239;-67
2022/01/11 04:36:37;;;;;;;91.07;43.33;;;-1.50;1.00;;;-1.69;77.78;102943.63;4959101;28;20649;-66
2022/01/11 04:39:10;;;;;;;100.88;45.35;;;-1.60;1.00;;;-1.81;77.78;102937.13;4959414;28;20191;-66
2022/01/11 04:41:41;;;;;;;93.68;41.67;;;-1.70;1.00;;;-1.65;77.93;102939.91;4959308;28;20207;-66
2022/01/11 04:44:10;;;;;;;94.57;43.35;;;-1.60;1.00;;;-1.62;78.11;102945.06;4959361;28;20227;-67
2022/01/11 04:46:40;;;;;;;101.38;43.58;;;-1.60;1.00;;;-1.60;78.00;102945.88;4958623;28;20195;-67
2022/01/11 04:49:08;;;;;;;94.30;45.03;;;-1.50;1.00;;;-1.35;77.37;102940.19;4958939;28;20665;-67
2022/01/11 04:51:37;;;;;;;97.15;44.53;;;-1.40;1.00;;;-1.32;77.32;102940.91;4958634;28;20187;-67
2022/01/11 04:54:07;;;;;;;96.05;41.92;;;-1.30;1.00;;;-1.36;77.46;102938.50;4959014;28;20229;-66
2022/01/11 04:56:36;;;;;;;96.20;40.95;;;-1.30;1.00;;;-1.43;77.65;102943.25;4958835;28;20557;-67
2022/01/11 04:59:06;;;;;;;95.55;42.45;;;-1.30;99.90;;;-1.47;77.77;102946.97;4959053;28;20215;-67
2022/01/11 05:01:36;;;;;;;101.65;47.42;;;-1.40;1.00;;;-1.21;76.87;102940.38;4958471;28;20192;-67
2022/01/11 05:04:05;;;;;;;93.60;45.75;;;-1.30;1.00;;;-1.42;76.69;102947.63;4958226;28;20301;-66
2022/01/11 05:06:34;;;;;;;86.80;42.13;;;-1.40;99.90;;;-1.39;77.54;102952.78;4958738;28;20188;-66
2022/01/11 05:09:04;;;;;;;90.72;37.95;;;-1.40;1.00;;;-1.29;76.75;102954.97;4958289;28;20206;-67
2022/01/11 05:11:32;;;;;;;78.45;40.58;;;-1.30;1.00;;;-1.33;77.51;102955.13;4958861;28;20184;-67
2022/01/11 05:14:00;;;;;;;93.65;41.15;;;-1.30;99.90;;;-1.48;77.75;102953.22;4958540;28;20219;-67
2022/01/11 05:16:43;;;;;;;104.32;47.00;;;-1.30;99.90;;;-1.63;78.00;102953.97;4958216;28;20207;-67
2022/01/11 05:19:12;;;;;;;88.63;43.25;;;-1.40;1.00;;;-1.52;77.55;102959.63;4957942;28;20203;-67
2022/01/11 05:21:45;;;;;;;105.75;44.10;;;-1.40;1.00;;;-1.44;78.33;102959.25;4958326;28;20195;-67
2022/01/11 05:24:15;;;;;;;95.03;44.60;;;-1.40;1.00;;;-1.05;76.75;102964.38;4957912;28;20211;-67
2022/01/11 05:26:45;;;;;;;86.72;41.05;;;-1.20;1.00;;;-1.26;76.67;102966.31;4958169;28;20678;-67
2022/01/11 05:29:14;;;;;;;98.90;44.65;;;-1.30;1.00;;;-1.39;77.46;102968.72;4957762;28;20230;-67
2022/01/11 05:31:44;;;;;;;99.70;44.40;;;-1.30;1.00;;;-1.27;77.43;102972.56;4958017;28;20203;-66
2022/01/11 05:34:12;;;;;;;104.25;41.42;;;-1.30;1.00;;;-1.46;77.81;102972.63;4957601;28;20239;-67
2022/01/11 05:36:42;;;;;;;91.53;42.42;;;-1.30;99.90;;;-1.41;77.12;102980.34;4957328;28;20222;-66
2022/01/11 05:39:10;;;;;;;86.97;42.90;;;-1.30;1.00;;;-1.29;77.37;102992.16;4975169;28;20206;-67
2022/01/11 05:41:39;;;;;;;79.07;37.90;;;-1.30;1.00;;;-1.35;76.07;102985.34;4973476;28;20199;-68
2022/01/11 05:44:07;;;;;;;88.90;41.95;;;-1.40;99.90;;;-1.53;77.08;102987.09;4974619;28;20227;-67
2022/01/11 05:46:35;;;;;;;88.03;42.47;;;-1.40;99.90;;;-1.43;77.14;102983.06;4957385;28;20187;-67
2022/01/11 05:49:06;;;;;;;93.03;38.92;;;-1.40;99.90;;;-1.33;77.60;102984.34;4974733;28;20218;-67
2022/01/11 05:51:34;;;;;;;94.25;39.63;;;-1.40;1.00;;;-1.17;76.22;102988.91;4957395;28;20199;-67
2022/01/11 05:54:03;;;;;;;93.30;39.60;;;-1.30;1.00;;;-1.37;77.04;102980.13;4974526;28;20215;-66
2022/01/11 05:56:32;;;;;;;91.00;44.53;;;-1.30;99.90;;;-1.39;77.42;102981.97;4964555;28;20196;-67
2022/01/11 05:59:00;;;;;;;95.55;42.90;;;-1.30;99.90;;;-1.20;76.63;102984.59;4953930;29;20618;-67
2022/01/11 06:01:29;;;;;;;86.63;43.33;;;-1.20;99.90;;;-1.26;76.84;102990.25;4953891;29;20530;-67
2022/01/11 06:03:58;;;;;;;92.35;39.55;;;-1.20;99.90;;;-1.26;76.41;102992.91;4970075;28;20422;-68
2022/01/11 06:06:28;;;;;;;99.32;41.88;;;-1.20;99.90;;;-1.36;76.75;102996.94;4955878;29;20176;-66
2022/01/11 06:09:01;;;;;;;90.82;44.10;;;-1.30;99.90;;;-1.37;77.14;102990.75;4954573;29;20204;-67
2022/01/11 06:11:30;;;;;;;93.32;43.03;;;-1.30;99.90;;;-1.28;77.32;102993.88;4970665;28;20728;-67
2022/01/11 06:13:59;;;;;;;96.05;42.22;;;-1.30;99.90;;;-1.25;77.11;102997.25;4953982;28;20215;-68
2022/01/11 06:16:30;;;;;;;99.10;43.08;;;-1.20;99.90;;;-1.32;76.82;103001.16;4955915;29;20181;-66
2022/01/11 06:18:59;;;;;;;88.95;41.95;;;-1.30;99.90;;;-1.43;75.99;103003.47;4956283;29;20272;-66
2022/01/11 06:21:44;;;;;;;90.07;40.20;;;-1.30;99.90;;;-1.40;77.24;102998.84;4955329;29;20183;-67
2022/01/11 06:24:40;;;;;;;97.80;42.03;;;-1.40;99.90;;;-1.31;76.33;103003.72;4955046;28;20219;-68
2022/01/11 06:27:09;;;;;;;84.85;40.63;;;-1.30;99.90;;;-1.28;76.40;103012.47;4955170;29;20203;-67
2022/01/11 06:29:37;;;;;;;88.75;40.33;;;-1.30;99.90;;;-1.46;76.89;103007.13;4971681;28;20266;-66
2022/01/11 06:32:07;;;;;;;98.25;41.22;;;-1.40;99.90;;;-1.41;76.83;103007.78;4955754;29;20276;-65
2022/01/11 06:34:35;;;;;;;74.32;41.90;;;-1.40;99.90;;;-1.48;76.73;103022.28;4955504;29;20303;-66
2022/01/11 06:37:05;;;;;;;97.60;42.15;;;-1.40;99.90;;;-1.23;76.12;103021.09;4954165;28;20274;-67
2022/01/11 06:39:37;;;;;;;90.82;39.15;;;-1.30;99.90;;;-1.36;77.07;103024.34;4969973;28;20188;-67
2022/01/11 06:42:07;;;;;;;92.32;42.20;;;-1.30;99.90;;;-1.20;76.87;103026.25;4970008;28;20208;-67
2022/01/11 06:44:38;;;;;;;78.22;40.03;;;-1.20;99.90;;;-1.24;75.88;103020.22;4955379;29;20722;-66
2022/01/11 06:47:09;;;;;;;83.68;38.78;;;-1.20;99.90;;;-1.47;76.78;103017.81;4953523;29;20598;-67
2022/01/11 06:49:38;;;;;;;84.13;40.15;;;-1.30;99.90;;;-1.45;77.03;103016.81;4953936;29;20192;-65
2022/01/11 06:52:08;;;;;;;91.50;40.38;;;-1.40;99.90;;;-1.39;77.77;103020.97;4937846;29;20539;-67
2022/01/11 06:54:40;;;;;;;90.90;39.47;;;-1.40;99.90;;;-1.16;76.80;103022.53;4969630;28;20220;-67
2022/01/11 06:57:09;;;;;;;89.13;42.17;;;-1.20;99.90;;;-1.33;77.14;103023.34;4953686;29;20200;-66
2022/01/11 06:59:38;;;;;;;104.85;43.90;;;-1.30;99.90;;;-1.32;76.97;103028.59;4937556;29;20190;-67
2022/01/11 07:02:10;;;;;;;85.60;39.15;;;-1.30;99.90;;;-1.35;76.98;103034.03;4953820;29;20211;-66
2022/01/11 07:04:57;;;;;;;83.57;39.58;;;-1.30;99.90;;;-1.24;76.99;103036.16;4969455;28;20211;-67
2022/01/11 07:07:27;;;;;;;91.70;39.60;;;-1.20;99.90;;;-1.18;76.50;103038.53;4969619;28;20180;-66
2022/01/11 07:09:55;;;;;;;87.68;40.28;;;-1.20;99.90;;;-1.16;76.41;103049.94;4973047;28;20234;-67
2022/01/11 07:12:24;;;;;;;82.93;39.97;;;-1.10;99.90;;;-1.10;76.58;103044.34;4957247;28;20231;-68
2022/01/11 07:14:53;;;;;;;95.47;42.22;;;-1.10;99.90;;;-1.11;76.12;103047.06;4941389;29;20211;-68
2022/01/11 07:17:23;;;;;;;98.72;41.00;;;-1.10;99.90;;;-1.25;76.34;103046.88;4973125;28;20307;-68
2022/01/11 07:19:54;;;;;;;84.30;39.00;;;-1.20;99.90;;;-1.34;77.08;103050.81;4957196;29;20700;-67
2022/01/11 07:22:22;;;;;;;82.35;37.50;;;-1.30;99.90;;;-1.05;75.57;103054.72;4973365;28;20239;-68
2022/01/11 07:24:52;;;;;;;79.28;38.50;;;-1.10;99.90;;;-1.18;76.13;103057.13;4957026;29;20705;-68
2022/01/11 07:27:21;;;;;;;81.55;41.00;;;-1.10;99.90;;;-1.18;76.58;103058.94;4973290;28;20200;-67
2022/01/11 07:29:51;;;;;;;82.30;41.38;;;-1.00;99.90;;;-1.27;76.97;103060.25;4957025;29;20219;-67
2022/01/11 07:32:20;;;;;;;88.30;36.85;;;-1.20;99.90;;;-1.22;75.94;103060.00;4973176;28;20192;-68
2022/01/11 07:34:48;;;;;;;78.50;38.67;;;-1.20;99.90;;;-1.33;75.73;103057.88;4957866;29;20292;-68
2022/01/11 07:37:17;;;;;;;77.00;37.42;;;-1.20;99.90;;;-1.33;76.87;103074.66;4958053;29;20418;-68
2022/01/11 07:39:48;;;;;;;75.18;36.15;;;-1.30;99.90;;;-1.25;76.03;103076.94;4957390;29;20207;-67
2022/01/11 07:42:18;;;;;;;73.88;35.92;;;-1.20;99.90;;;-1.33;75.66;103074.66;4973235;28;20218;-67
2022/01/11 07:45:01;;;;;;;65.50;32.90;;;-1.30;99.90;;;-1.46;76.35;103089.47;5156894;23;20747;-71
2022/01/11 07:47:31;;;;;;;69.40;37.08;;;-1.30;99.90;;;-1.27;75.52;103088.59;4944804;29;20200;-71
2022/01/11 07:50:00;;;;;;;67.93;35.22;;;-1.20;99.90;;;-1.29;75.42;103090.44;4941964;29;20708;-71
2022/01/11 07:52:29;;;;;;;74.82;34.08;;;-1.20;99.90;;;-1.47;76.54;103093.06;4941705;29;20222;-71
2022/01/11 07:54:58;;;;;;;68.90;33.72;;;-1.30;99.90;;;-1.38;76.04;103097.94;4938251;29;20224;-72
2022/01/11 07:57:29;;;;;;;73.28;34.78;;;-1.30;99.90;;;-1.41;75.63;103098.09;4922471;29;20654;-70
2022/01/11 07:59:57;;;;;;;74.07;34.60;;;-1.30;99.90;;;-1.61;76.00;103098.13;4922345;29;20722;-71
2022/01/11 08:02:42;;;;;;;64.93;34.63;;;-1.40;99.90;;;-1.40;75.52;103101.56;4938949;29;20204;-71
2022/01/11 08:05:24;;;;;;;74.90;42.90;;;-1.40;99.90;;;-1.37;75.59;103099.66;4920319;29;20446;-71
2022/01/11 08:07:55;;;;;;;75.50;36.67;;;-1.40;99.90;;;-1.33;75.44;103097.72;4922436;29;20708;-70
2022/01/11 08:10:28;;;;;;;70.78;32.38;;;-1.30;99.90;;;-1.24;75.74;103105.25;4922411;29;20189;-71
2022/01/11 08:12:58;;;;;;;61.78;32.80;;;-1.30;99.90;;;-1.19;75.35;103102.38;4924198;29;20346;-71
2022/01/11 08:15:27;;;;;;;74.68;34.75;;;-1.20;99.90;;;-0.92;75.10;103107.22;4930530;29;20681;-71
2022/01/11 08:17:56;;;;;;;68.22;32.38;;;-1.00;99.90;;;-0.95;74.26;103111.81;4929361;29;20224;-73
2022/01/11 08:20:25;;;;;;;73.60;33.03;;;-0.90;99.90;;;-1.17;74.79;103097.84;4925189;29;20189;-70
2022/01/11 08:22:56;;;;;;;65.13;31.60;;;-1.10;99.90;;;-1.30;75.53;103100.22;4925276;29;20227;-71
2022/01/11 08:25:29;;;;;;;61.22;31.25;;;-1.20;99.90;;;-1.20;75.18;103100.63;4925650;29;20221;-71
2022/01/11 08:28:00;;;;;;;68.40;32.65;;;-1.20;99.90;;;-1.26;75.36;103108.94;4924752;29;20196;-71
2022/01/11 08:30:29;;;;;;;62.72;31.58;;;-1.20;99.90;;;-1.17;75.43;103112.00;4924744;29;20272;-72
2022/01/11 08:33:01;;;;;;;65.45;32.28;;;-1.20;99.90;;;-1.22;75.50;103103.41;4930844;29;20264;-70
2022/01/11 08:35:30;;;;;;;62.35;30.63;;;-1.20;99.90;;;-1.20;74.97;103119.25;4934080;29;20216;-70
2022/01/11 08:38:05;;;;;;;60.80;32.72;;;-1.20;99.90;;;-1.20;74.67;103116.59;4951555;29;20208;-69
2022/01/11 08:40:34;;;;;;;63.97;33.13;;;-1.20;99.90;;;-1.17;75.25;103113.81;4935068;29;20312;-70
2022/01/11 08:43:08;;;;;;;56.88;30.65;;;-1.20;99.90;;;-1.04;74.70;103114.94;4933825;29;20197;-70
2022/01/11 08:45:42;;;;;;;68.22;32.38;;;-1.10;99.90;;;-1.12;74.61;103125.94;4949650;29;20255;-69
2022/01/11 08:48:14;;;;;;;53.97;28.05;;;-1.10;99.90;;;-1.25;74.50;103123.91;4932475;29;20192;-71
2022/01/11 08:51:03;;;;;;;75.93;30.70;;;-1.20;99.90;;;-1.19;75.11;103129.81;4939627;29;20209;-70
2022/01/11 08:53:33;;;;;;;67.95;31.38;;;-1.20;99.90;;;-1.13;74.77;103123.34;4927434;29;20319;-71
2022/01/11 08:56:11;;;;;;;60.03;31.52;;;-1.10;99.90;;;-1.07;75.07;103131.91;4921635;29;20189;-70
2022/01/11 08:58:42;;;;;;;65.63;32.00;;;-1.10;99.90;;;-1.05;74.21;103127.34;4921292;29;20237;-72
2022/01/11 09:01:13;;;;;;;64.38;34.33;;;-1.00;99.90;;;-1.17;74.40;103135.06;4921646;29;20200;-72
2022/01/11 09:03:43;;;;;;;53.55;31.27;;;-1.10;99.90;;;-1.16;74.76;103127.00;4921909;29;20195;-71
2022/01/11 09:06:12;;;;;;;66.65;30.88;;;-1.20;99.90;;;-1.10;74.75;103134.69;4922189;29;20205;-71
2022/01/11 09:08:55;;;;;;;68.07;33.85;;;-1.10;99.90;;;-1.09;74.75;103136.41;4920229;29;20199;-72
2022/01/11 09:11:24;;;;;;;65.50;30.65;;;-1.10;99.90;;;-1.01;74.16;103133.38;4921117;29;20228;-72
2022/01/11 09:13:54;;;;;;;62.35;32.40;;;-1.00;99.90;;;-0.90;74.03;103137.25;4920512;29;20197;-69
2022/01/11 09:16:24;;;;;;;60.22;34.10;;;-1.00;99.90;;;-0.96;74.05;103126.03;4920636;29;20244;-70
2022/01/11 09:18:54;;;;;;;60.22;31.35;;;-1.00;99.90;;;-1.03;74.29;103124.63;4936597;29;20213;-71
2022/01/11 09:21:22;;;;;;;60.85;33.22;;;-1.00;99.90;;;-1.08;74.17;103137.28;4920571;29;20204;-69
2022/01/11 09:23:53;;;;;;;60.42;30.33;;;-1.00;99.90;;;-1.07;73.90;103134.56;4919975;29;20280;-70
2022/01/11 09:26:26;;;;;;;53.90;31.95;;;-1.10;99.90;;;-1.15;74.08;103131.38;4936190;29;20275;-72
2022/01/11 09:28:59;;;;;;;63.35;31.70;;;-1.10;99.90;;;-0.84;74.38;103136.09;4937432;29;20197;-71
2022/01/11 09:31:28;;;;;;;57.28;30.08;;;-1.00;99.90;;;-0.58;73.35;103140.16;4920397;29;20751;-70
2022/01/11 09:34:00;;;;;;;57.75;30.63;;;-0.80;99.90;;;-0.84;72.93;103135.25;4920095;29;20303;-70
2022/01/11 09:36:30;;;;;;;59.25;29.70;;;-0.80;99.90;;;-0.85;73.67;103123.75;4936666;29;20197;-71
2022/01/11 09:38:58;;;;;;;64.47;31.70;;;-0.90;99.90;;;-0.88;73.93;103121.25;4937851;29;20244;-68
2022/01/11 09:41:27;;;;;;;61.45;33.95;;;-0.90;99.90;;;-0.70;73.61;103119.47;4920402;29;20280;-70
2022/01/11 09:43:57;;;;;;;61.55;30.75;;;-0.80;99.90;;;-0.74;73.18;103118.78;4920703;29;20248;-71
2022/01/11 09:46:29;;;;;;;61.72;32.08;;;-0.80;99.90;;;-0.70;73.51;103125.66;4938264;29;20197;-69
2022/01/11 09:49:00;;;;;;;58.10;31.23;;;-0.70;99.90;;;-0.77;73.38;103128.66;4921495;29;20280;-70
2022/01/11 09:51:31;;;;;;;59.83;32.72;;;-0.80;99.90;;;-0.47;72.99;103130.69;4921969;29;20200;-72
2022/01/11 09:54:01;;;;;;;60.60;32.85;;;-0.60;99.90;;;-0.47;72.70;103122.72;4922359;29;20249;-70
2022/01/11 09:56:30;;;;;;;51.70;30.08;;;-0.50;99.90;;;-0.38;72.49;103126.69;4936852;28;20213;-69
2022/01/11 09:58:59;;;;;;;55.42;31.00;;;-0.50;99.90;;;-0.37;72.62;103132.88;4920374;29;20227;-71
2022/01/11 10:02:05;;;;;;;58.67;29.38;;;-0.50;99.90;;;-0.34;71.81;103130.09;4935095;29;20188;-69
2022/01/11 10:04:55;;;;;;;54.05;29.35;;;-0.40;99.90;;;-0.51;72.17;103118.50;4934948;29;20244;-71
2022/01/11 10:07:43;;;;;;;52.22;29.50;;;-0.50;99.90;;;-0.58;72.60;103119.72;4920294;29;20181;-71
2022/01/11 10:10:16;;;;;;;57.90;31.23;;;-0.60;99.90;;;-0.60;72.97;103118.94;4920662;29;20189;-72
2022/01/11 10:12:50;;;;;;;58.67;36.20;;;-0.60;99.90;;;-0.66;73.27;103118.38;4920898;29;20188;-71
2022/01/11 10:15:29;;;;;;;67.50;31.88;;;-0.70;99.90;;;-0.64;72.82;103119.19;4919347;29;20227;-70
2022/01/11 10:18:10;;;;;;;57.83;32.13;;;-0.70;99.90;;;-0.52;72.48;103116.75;4935679;29;20193;-72